BCS943 LYBE-LIMC
Flight info
| Callsign | BCS943 |
|---|---|
| Flight time | 1h 38m |
| Altitude | 38000 |
| Route | TUVAR DCT ROTAR DCT VIC/N0392F190 L615 IBUGO/N0387F180 L615 OSKOR/N0391F190 L615 PEXUG |
| Aircraft | B738/M-SDE2E3FGHIRWXY/LB1 |
Departure
| Time | 2026-05-06 20:23 |
|---|---|
| Airport | Belgrade Nikola Tesla Airport (LYBE) |
Arrival
| Time | 2026-05-06 22:01 |
|---|---|
| Airport | Milan Malpensa International Airport (LIMC) |
| Time | Latitude | Longitude | Altitude | Speed | Heading |
|---|---|---|---|---|---|
| 2026-05-06 19:55 | 44.81603 | 20.28962 | 327 ft | 0 kts | 33° |
| 2026-05-06 20:17 | 44.81607 | 20.28966 | 300 ft | 2 kts | 33° |
| 2026-05-06 20:17 | 44.81626 | 20.28982 | 326 ft | 0 kts | 33° |
| 2026-05-06 20:18 | 44.81626 | 20.28986 | 324 ft | 1 kts | 55° |
| 2026-05-06 20:18 | 44.81623 | 20.29006 | 327 ft | 4 kts | 102° |
| 2026-05-06 20:18 | 44.81607 | 20.29047 | 327 ft | 6 kts | 122° |
| 2026-05-06 20:18 | 44.81622 | 20.29107 | 327 ft | 8 kts | 33° |
| 2026-05-06 20:19 | 44.81680 | 20.29159 | 324 ft | 12 kts | 35° |
| 2026-05-06 20:19 | 44.81759 | 20.29228 | 325 ft | 15 kts | 32° |
| 2026-05-06 20:19 | 44.81858 | 20.29316 | 328 ft | 18 kts | 28° |
| 2026-05-06 20:19 | 44.81978 | 20.29416 | 323 ft | 22 kts | 37° |
| 2026-05-06 20:20 | 44.82110 | 20.29537 | 326 ft | 23 kts | 27° |
| 2026-05-06 20:20 | 44.82237 | 20.29646 | 324 ft | 3 kts | 32° |
| 2026-05-06 20:21 | 44.82250 | 20.29656 | 328 ft | 4 kts | 30° |
| 2026-05-06 20:21 | 44.82284 | 20.29685 | 328 ft | 8 kts | 32° |
| 2026-05-06 20:21 | 44.82338 | 20.29739 | 326 ft | 11 kts | 52° |
| 2026-05-06 20:22 | 44.82323 | 20.29848 | 327 ft | 15 kts | 122° |
| 2026-05-06 20:22 | 44.82175 | 20.30182 | 326 ft | 74 kts | 122° |
| 2026-05-06 20:22 | 44.81788 | 20.31055 | 332 ft | 134 kts | 122° |
| 2026-05-06 20:22 | 44.81203 | 20.32336 | 540 ft | 166 kts | 123° |
| 2026-05-06 20:23 | 44.80578 | 20.33722 | 1281 ft | 167 kts | 125° |
| 2026-05-06 20:23 | 44.79806 | 20.34807 | 2060 ft | 159 kts | 162° |
| 2026-05-06 20:23 | 44.78658 | 20.34955 | 2451 ft | 180 kts | 178° |
| 2026-05-06 20:23 | 44.77318 | 20.35073 | 2661 ft | 205 kts | 176° |
| 2026-05-06 20:24 | 44.75829 | 20.35235 | 2909 ft | 223 kts | 176° |
| 2026-05-06 20:24 | 44.74253 | 20.35419 | 3386 ft | 231 kts | 176° |
| 2026-05-06 20:24 | 44.72638 | 20.35619 | 4094 ft | 234 kts | 176° |
| 2026-05-06 20:24 | 44.71001 | 20.35831 | 4779 ft | 240 kts | 176° |
| 2026-05-06 20:25 | 44.69331 | 20.36054 | 5466 ft | 243 kts | 175° |
| 2026-05-06 20:25 | 44.67639 | 20.36284 | 5900 ft | 245 kts | 175° |
| 2026-05-06 20:25 | 44.65966 | 20.36515 | 5987 ft | 247 kts | 175° |
| 2026-05-06 20:25 | 44.64246 | 20.36755 | 5993 ft | 247 kts | 175° |
| 2026-05-06 20:26 | 44.62543 | 20.36994 | 5987 ft | 245 kts | 175° |
| 2026-05-06 20:26 | 44.60850 | 20.37232 | 5984 ft | 243 kts | 175° |
| 2026-05-06 20:26 | 44.59170 | 20.37468 | 5988 ft | 242 kts | 175° |
| 2026-05-06 20:26 | 44.57500 | 20.37703 | 5990 ft | 241 kts | 175° |
| 2026-05-06 20:27 | 44.55835 | 20.37937 | 5990 ft | 240 kts | 175° |
| 2026-05-06 20:27 | 44.54208 | 20.37805 | 5973 ft | 239 kts | 201° |
| 2026-05-06 20:27 | 44.52889 | 20.36458 | 6001 ft | 239 kts | 232° |
| 2026-05-06 20:27 | 44.52184 | 20.34325 | 6058 ft | 252 kts | 257° |
| 2026-05-06 20:28 | 44.52234 | 20.31785 | 6424 ft | 272 kts | 284° |
| 2026-05-06 20:28 | 44.52900 | 20.29267 | 7036 ft | 279 kts | 289° |
| 2026-05-06 20:28 | 44.53617 | 20.26728 | 7763 ft | 281 kts | 289° |
| 2026-05-06 20:28 | 44.54344 | 20.24170 | 8491 ft | 284 kts | 289° |
| 2026-05-06 20:29 | 44.55075 | 20.21590 | 9223 ft | 286 kts | 289° |
| 2026-05-06 20:29 | 44.55801 | 20.19015 | 9915 ft | 289 kts | 289° |
| 2026-05-06 20:29 | 44.56540 | 20.16382 | 10582 ft | 292 kts | 289° |
| 2026-05-06 20:29 | 44.57284 | 20.13722 | 11249 ft | 295 kts | 289° |
| 2026-05-06 20:30 | 44.58033 | 20.11033 | 11935 ft | 297 kts | 289° |
| 2026-05-06 20:30 | 44.59547 | 20.05579 | 13345 ft | 303 kts | 289° |
| 2026-05-06 20:30 | 44.60314 | 20.02810 | 14036 ft | 306 kts | 289° |
| 2026-05-06 20:31 | 44.61085 | 20.00022 | 14712 ft | 308 kts | 289° |
| 2026-05-06 20:31 | 44.61854 | 19.97240 | 15370 ft | 312 kts | 289° |
| 2026-05-06 20:31 | 44.62640 | 19.94392 | 16052 ft | 314 kts | 289° |
| 2026-05-06 20:31 | 44.63431 | 19.91523 | 16749 ft | 316 kts | 289° |
| 2026-05-06 20:32 | 44.64246 | 19.88641 | 17428 ft | 320 kts | 293° |
| 2026-05-06 20:32 | 44.65587 | 19.86122 | 18049 ft | 329 kts | 317° |
| 2026-05-06 20:32 | 44.67359 | 19.84091 | 18700 ft | 330 kts | 317° |
| 2026-05-06 20:32 | 44.69088 | 19.81969 | 19322 ft | 330 kts | 315° |
| 2026-05-06 20:33 | 44.70807 | 19.79817 | 19946 ft | 331 kts | 315° |
| 2026-05-06 20:33 | 44.72501 | 19.77688 | 20576 ft | 332 kts | 315° |
| 2026-05-06 20:33 | 44.74223 | 19.75525 | 21193 ft | 333 kts | 315° |
| 2026-05-06 20:33 | 44.75954 | 19.73352 | 21803 ft | 334 kts | 315° |
| 2026-05-06 20:34 | 44.77691 | 19.71173 | 22426 ft | 335 kts | 315° |
| 2026-05-06 20:34 | 44.79439 | 19.68978 | 22974 ft | 338 kts | 315° |
| 2026-05-06 20:34 | 44.81195 | 19.66773 | 23540 ft | 340 kts | 315° |
| 2026-05-06 20:34 | 44.82962 | 19.64554 | 24032 ft | 341 kts | 314° |
| 2026-05-06 20:35 | 44.84737 | 19.62324 | 24498 ft | 343 kts | 314° |
| 2026-05-06 20:35 | 44.86497 | 19.60109 | 24954 ft | 345 kts | 314° |
| 2026-05-06 20:35 | 44.88281 | 19.57826 | 25380 ft | 347 kts | 311° |
| 2026-05-06 20:35 | 44.89786 | 19.55188 | 25800 ft | 345 kts | 301° |
| 2026-05-06 20:36 | 44.91118 | 19.52364 | 26254 ft | 347 kts | 300° |
| 2026-05-06 20:36 | 44.92458 | 19.49522 | 26691 ft | 349 kts | 301° |
| 2026-05-06 20:36 | 44.93817 | 19.46670 | 27104 ft | 351 kts | 301° |
| 2026-05-06 20:36 | 44.95194 | 19.43808 | 27526 ft | 353 kts | 301° |
| 2026-05-06 20:37 | 44.96585 | 19.40938 | 27928 ft | 357 kts | 301° |
| 2026-05-06 20:37 | 44.97980 | 19.38073 | 28303 ft | 359 kts | 301° |
| 2026-05-06 20:37 | 44.99399 | 19.35165 | 28723 ft | 361 kts | 301° |
| 2026-05-06 20:37 | 45.00827 | 19.32238 | 29131 ft | 363 kts | 301° |
| 2026-05-06 20:38 | 45.02263 | 19.29294 | 29518 ft | 365 kts | 301° |
| 2026-05-06 20:38 | 45.03706 | 19.26332 | 29896 ft | 367 kts | 301° |
| 2026-05-06 20:38 | 45.05157 | 19.23351 | 30229 ft | 369 kts | 301° |
| 2026-05-06 20:38 | 45.06608 | 19.20367 | 30593 ft | 369 kts | 301° |
| 2026-05-06 20:39 | 45.08060 | 19.17378 | 30968 ft | 369 kts | 301° |
| 2026-05-06 20:39 | 45.09512 | 19.14387 | 31313 ft | 369 kts | 300° |
| 2026-05-06 20:39 | 45.10946 | 19.11429 | 31643 ft | 370 kts | 300° |
| 2026-05-06 20:39 | 45.12277 | 19.08342 | 31937 ft | 366 kts | 289° |
| 2026-05-06 20:40 | 45.12904 | 19.04863 | 32078 ft | 366 kts | 274° |
| 2026-05-06 20:40 | 45.13274 | 18.97549 | 32222 ft | 379 kts | 272° |
| 2026-05-06 20:41 | 45.13592 | 18.89977 | 32349 ft | 392 kts | 272° |
| 2026-05-06 20:41 | 45.13932 | 18.82190 | 32458 ft | 404 kts | 272° |
| 2026-05-06 20:42 | 45.14296 | 18.74153 | 32651 ft | 413 kts | 272° |
| 2026-05-06 20:42 | 45.14481 | 18.70076 | 32822 ft | 415 kts | 272° |
| 2026-05-06 20:42 | 45.14666 | 18.66011 | 33191 ft | 412 kts | 272° |
| 2026-05-06 20:42 | 45.14850 | 18.61979 | 33676 ft | 407 kts | 272° |
| 2026-05-06 20:43 | 45.15027 | 18.58052 | 34104 ft | 403 kts | 272° |
| 2026-05-06 20:43 | 45.15204 | 18.54081 | 34313 ft | 404 kts | 272° |
| 2026-05-06 20:43 | 45.15379 | 18.50104 | 34424 ft | 406 kts | 272° |
| 2026-05-06 20:43 | 45.15554 | 18.46095 | 34609 ft | 407 kts | 272° |
| 2026-05-06 20:44 | 45.15728 | 18.42102 | 34851 ft | 406 kts | 272° |
| 2026-05-06 20:44 | 45.15899 | 18.38112 | 35066 ft | 406 kts | 272° |
| 2026-05-06 20:44 | 45.16070 | 18.34110 | 35205 ft | 408 kts | 272° |
| 2026-05-06 20:45 | 45.16409 | 18.26078 | 35482 ft | 411 kts | 272° |
| 2026-05-06 20:45 | 45.16576 | 18.22064 | 35766 ft | 409 kts | 272° |
| 2026-05-06 20:45 | 45.16742 | 18.18039 | 35978 ft | 409 kts | 272° |
| 2026-05-06 20:45 | 45.16907 | 18.14034 | 36132 ft | 410 kts | 272° |
| 2026-05-06 20:46 | 45.17070 | 18.10002 | 36315 ft | 410 kts | 272° |
| 2026-05-06 20:46 | 45.17232 | 18.05974 | 36536 ft | 409 kts | 272° |
| 2026-05-06 20:46 | 45.17393 | 18.01955 | 36724 ft | 409 kts | 272° |
| 2026-05-06 20:46 | 45.17552 | 17.97931 | 36891 ft | 409 kts | 272° |
| 2026-05-06 20:47 | 45.17710 | 17.93906 | 37067 ft | 410 kts | 271° |
| 2026-05-06 20:47 | 45.17864 | 17.89925 | 37230 ft | 410 kts | 271° |
| 2026-05-06 20:47 | 45.18019 | 17.85901 | 37420 ft | 409 kts | 271° |
| 2026-05-06 20:47 | 45.18172 | 17.81876 | 37610 ft | 409 kts | 271° |
| 2026-05-06 20:48 | 45.18324 | 17.77855 | 37774 ft | 409 kts | 271° |
| 2026-05-06 20:48 | 45.18475 | 17.73832 | 37905 ft | 409 kts | 271° |
| 2026-05-06 20:48 | 45.18624 | 17.69795 | 37929 ft | 411 kts | 271° |
| 2026-05-06 20:49 | 45.18920 | 17.61707 | 37934 ft | 409 kts | 271° |
| 2026-05-06 20:49 | 45.19205 | 17.53754 | 37923 ft | 405 kts | 271° |
| 2026-05-06 20:50 | 45.19484 | 17.45807 | 37941 ft | 402 kts | 271° |
| 2026-05-06 20:50 | 45.19757 | 17.37905 | 37941 ft | 401 kts | 271° |
| 2026-05-06 20:51 | 45.20023 | 17.29991 | 37946 ft | 402 kts | 271° |
| 2026-05-06 20:51 | 45.20284 | 17.22098 | 37948 ft | 405 kts | 271° |
| 2026-05-06 20:52 | 45.20542 | 17.14100 | 37942 ft | 408 kts | 271° |
| 2026-05-06 20:52 | 45.20797 | 17.06047 | 37935 ft | 411 kts | 271° |
| 2026-05-06 20:53 | 45.21048 | 16.97930 | 37939 ft | 413 kts | 271° |
| 2026-05-06 20:53 | 45.21295 | 16.89767 | 37948 ft | 415 kts | 271° |
| 2026-05-06 20:54 | 45.21535 | 16.81631 | 37945 ft | 416 kts | 271° |
| 2026-05-06 20:54 | 45.21772 | 16.73435 | 37951 ft | 417 kts | 270° |
| 2026-05-06 20:55 | 45.22002 | 16.65222 | 37948 ft | 417 kts | 270° |
| 2026-05-06 20:55 | 45.22227 | 16.57014 | 37942 ft | 416 kts | 270° |
| 2026-05-06 20:56 | 45.22444 | 16.48877 | 37936 ft | 415 kts | 270° |
| 2026-05-06 20:56 | 45.22656 | 16.40704 | 37944 ft | 414 kts | 270° |
| 2026-05-06 20:57 | 45.22862 | 16.32552 | 37947 ft | 414 kts | 270° |
| 2026-05-06 20:57 | 45.23061 | 16.24406 | 37947 ft | 413 kts | 269° |
| 2026-05-06 20:58 | 45.23253 | 16.16331 | 37948 ft | 412 kts | 269° |
| 2026-05-06 20:58 | 45.23441 | 16.08207 | 37952 ft | 412 kts | 269° |
| 2026-05-06 20:59 | 45.23622 | 16.00091 | 37960 ft | 412 kts | 269° |
| 2026-05-06 20:59 | 45.23799 | 15.91972 | 37949 ft | 411 kts | 268° |
| 2026-05-06 21:00 | 45.23967 | 15.83944 | 37950 ft | 409 kts | 268° |
| 2026-05-06 21:00 | 45.24131 | 15.75907 | 37958 ft | 407 kts | 268° |
| 2026-05-06 21:01 | 45.24287 | 15.67907 | 37953 ft | 405 kts | 268° |
| 2026-05-06 21:01 | 45.24437 | 15.59932 | 37953 ft | 403 kts | 268° |
| 2026-05-06 21:02 | 45.24581 | 15.52034 | 37959 ft | 403 kts | 267° |
| 2026-05-06 21:02 | 45.24719 | 15.44097 | 37955 ft | 403 kts | 267° |
| 2026-05-06 21:03 | 45.24852 | 15.36141 | 37955 ft | 404 kts | 267° |
| 2026-05-06 21:03 | 45.24979 | 15.28220 | 37967 ft | 405 kts | 267° |
| 2026-05-06 21:04 | 45.25102 | 15.20228 | 37958 ft | 406 kts | 267° |
| 2026-05-06 21:04 | 45.25220 | 15.12201 | 37975 ft | 407 kts | 267° |
| 2026-05-06 21:05 | 45.25332 | 15.04163 | 37978 ft | 408 kts | 267° |
| 2026-05-06 21:05 | 45.25439 | 14.96080 | 37964 ft | 411 kts | 267° |
| 2026-05-06 21:06 | 45.25542 | 14.88032 | 37968 ft | 411 kts | 267° |
| 2026-05-06 21:06 | 45.25638 | 14.79937 | 37941 ft | 410 kts | 267° |
| 2026-05-06 21:07 | 45.25728 | 14.71822 | 37950 ft | 412 kts | 267° |
| 2026-05-06 21:07 | 45.25813 | 14.63705 | 37974 ft | 417 kts | 267° |
| 2026-05-06 21:08 | 45.25893 | 14.55433 | 37966 ft | 421 kts | 267° |
| 2026-05-06 21:08 | 45.25968 | 14.47099 | 37968 ft | 423 kts | 267° |
| 2026-05-06 21:09 | 45.26038 | 14.38750 | 37987 ft | 424 kts | 267° |
| 2026-05-06 21:09 | 45.26102 | 14.30438 | 37976 ft | 424 kts | 267° |
| 2026-05-06 21:10 | 45.26159 | 14.22067 | 37980 ft | 423 kts | 267° |
| 2026-05-06 21:10 | 45.26211 | 14.13720 | 37983 ft | 423 kts | 267° |
| 2026-05-06 21:11 | 45.26256 | 14.05396 | 37983 ft | 421 kts | 267° |
| 2026-05-06 21:11 | 45.26294 | 13.97157 | 37977 ft | 420 kts | 267° |
| 2026-05-06 21:12 | 45.26327 | 13.88889 | 37970 ft | 417 kts | 267° |
| 2026-05-06 21:12 | 45.26354 | 13.80672 | 37954 ft | 415 kts | 267° |
| 2026-05-06 21:13 | 45.26374 | 13.72502 | 37940 ft | 413 kts | 266° |
| 2026-05-06 21:13 | 45.26389 | 13.64413 | 37935 ft | 412 kts | 266° |
| 2026-05-06 21:14 | 45.26397 | 13.56295 | 37942 ft | 412 kts | 266° |
| 2026-05-06 21:14 | 45.26400 | 13.48179 | 37939 ft | 411 kts | 266° |
| 2026-05-06 21:15 | 45.26397 | 13.40062 | 37944 ft | 411 kts | 266° |
| 2026-05-06 21:15 | 45.26389 | 13.32004 | 37936 ft | 411 kts | 266° |
| 2026-05-06 21:16 | 45.26375 | 13.23880 | 37934 ft | 412 kts | 266° |
| 2026-05-06 21:16 | 45.26355 | 13.15726 | 37932 ft | 414 kts | 266° |
| 2026-05-06 21:17 | 45.26331 | 13.07540 | 37924 ft | 415 kts | 266° |
| 2026-05-06 21:17 | 45.26702 | 12.99379 | 37925 ft | 422 kts | 277° |
| 2026-05-06 21:18 | 45.28606 | 12.91415 | 37937 ft | 430 kts | 288° |
| 2026-05-06 21:18 | 45.30931 | 12.83574 | 37961 ft | 431 kts | 287° |
| 2026-05-06 21:19 | 45.33222 | 12.75694 | 37922 ft | 432 kts | 287° |
| 2026-05-06 21:19 | 45.35483 | 12.67842 | 37902 ft | 432 kts | 287° |
| 2026-05-06 21:20 | 45.37753 | 12.59923 | 37904 ft | 432 kts | 287° |
| 2026-05-06 21:20 | 45.40017 | 12.52006 | 37920 ft | 431 kts | 287° |
| 2026-05-06 21:21 | 45.42270 | 12.44100 | 37913 ft | 431 kts | 286° |
| 2026-05-06 21:21 | 45.44518 | 12.36187 | 37914 ft | 431 kts | 286° |
| 2026-05-06 21:22 | 45.46746 | 12.28321 | 37913 ft | 430 kts | 286° |
| 2026-05-06 21:22 | 45.48976 | 12.20419 | 37911 ft | 430 kts | 286° |
| 2026-05-06 21:23 | 45.51202 | 12.12509 | 37949 ft | 430 kts | 286° |
| 2026-05-06 21:23 | 45.53423 | 12.04589 | 37952 ft | 430 kts | 286° |
| 2026-05-06 21:24 | 45.55623 | 11.96719 | 37936 ft | 431 kts | 286° |
| 2026-05-06 21:24 | 45.57837 | 11.88771 | 37932 ft | 431 kts | 286° |
| 2026-05-06 21:25 | 45.60048 | 11.80813 | 37921 ft | 431 kts | 286° |
| 2026-05-06 21:25 | 45.62242 | 11.72888 | 37917 ft | 433 kts | 286° |
| 2026-05-06 21:26 | 45.63775 | 11.64701 | 37925 ft | 423 kts | 271° |
| 2026-05-06 21:26 | 45.63871 | 11.56350 | 37916 ft | 421 kts | 266° |
| 2026-05-06 21:27 | 45.63980 | 11.47983 | 37912 ft | 422 kts | 267° |
| 2026-05-06 21:27 | 45.64086 | 11.39641 | 37914 ft | 423 kts | 266° |
| 2026-05-06 21:28 | 45.64164 | 11.31236 | 37924 ft | 424 kts | 266° |
| 2026-05-06 21:28 | 45.64239 | 11.22806 | 37925 ft | 424 kts | 266° |
| 2026-05-06 21:29 | 45.64298 | 11.15800 | 37920 ft | 425 kts | 266° |
| 2026-05-06 21:29 | 45.64331 | 11.11567 | 37617 ft | 430 kts | 266° |
| 2026-05-06 21:29 | 45.64365 | 11.07280 | 37264 ft | 429 kts | 266° |
| 2026-05-06 21:29 | 45.64409 | 11.01655 | 36292 ft | 429 kts | 265° |
| 2026-05-06 21:30 | 45.64448 | 10.97456 | 35840 ft | 424 kts | 265° |
| 2026-05-06 21:30 | 45.64479 | 10.94610 | 35482 ft | 421 kts | 265° |
| 2026-05-06 21:30 | 45.64536 | 10.89095 | 34753 ft | 416 kts | 265° |
| 2026-05-06 21:30 | 45.64563 | 10.86366 | 34223 ft | 416 kts | 264° |
| 2026-05-06 21:31 | 45.64603 | 10.82215 | 33506 ft | 415 kts | 264° |
| 2026-05-06 21:31 | 45.64641 | 10.78119 | 33088 ft | 408 kts | 264° |
| 2026-05-06 21:31 | 45.64687 | 10.74120 | 32721 ft | 399 kts | 264° |
| 2026-05-06 21:31 | 45.64742 | 10.68860 | 31817 ft | 399 kts | 264° |
| 2026-05-06 21:32 | 45.64781 | 10.64895 | 31117 ft | 399 kts | 264° |
| 2026-05-06 21:32 | 45.64798 | 10.63064 | 30782 ft | 399 kts | 264° |
| 2026-05-06 21:33 | 45.64809 | 10.61610 | 30505 ft | 400 kts | 263° |
| 2026-05-06 21:33 | 45.64814 | 10.57625 | 29786 ft | 401 kts | 263° |
| 2026-05-06 21:33 | 45.64813 | 10.57076 | 29662 ft | 401 kts | 263° |
| 2026-05-06 21:34 | 45.64809 | 10.54628 | 29119 ft | 402 kts | 263° |
| 2026-05-06 21:34 | 45.64803 | 10.50703 | 28597 ft | 397 kts | 263° |
| 2026-05-06 21:34 | 45.64801 | 10.46780 | 27923 ft | 394 kts | 263° |
| 2026-05-06 21:35 | 45.64802 | 10.42897 | 27382 ft | 388 kts | 263° |
| 2026-05-06 21:35 | 45.64807 | 10.39735 | 26920 ft | 386 kts | 264° |
| 2026-05-06 21:35 | 45.64815 | 10.37400 | 26570 ft | 384 kts | 264° |
| 2026-05-06 21:35 | 45.64832 | 10.33605 | 26036 ft | 380 kts | 264° |
| 2026-05-06 21:36 | 45.64849 | 10.29839 | 25485 ft | 378 kts | 264° |
| 2026-05-06 21:36 | 45.64856 | 10.26095 | 24961 ft | 375 kts | 264° |
| 2026-05-06 21:36 | 45.64881 | 10.22352 | 24369 ft | 377 kts | 265° |
| 2026-05-06 21:36 | 45.64920 | 10.19216 | 23996 ft | 373 kts | 265° |
| 2026-05-06 21:37 | 45.64918 | 10.15518 | 23501 ft | 371 kts | 264° |
| 2026-05-06 21:37 | 45.64911 | 10.11840 | 22904 ft | 370 kts | 265° |
| 2026-05-06 21:37 | 45.64909 | 10.08123 | 22169 ft | 379 kts | 265° |
| 2026-05-06 21:37 | 45.64918 | 10.04331 | 21625 ft | 385 kts | 265° |
| 2026-05-06 21:38 | 45.64934 | 10.00518 | 21062 ft | 382 kts | 266° |
| 2026-05-06 21:38 | 45.64951 | 9.96748 | 20522 ft | 377 kts | 266° |
| 2026-05-06 21:38 | 45.64968 | 9.93019 | 20040 ft | 372 kts | 266° |
| 2026-05-06 21:38 | 45.64980 | 9.89344 | 19516 ft | 369 kts | 266° |
| 2026-05-06 21:39 | 45.64986 | 9.85736 | 19013 ft | 367 kts | 266° |
| 2026-05-06 21:39 | 45.64993 | 9.82099 | 18509 ft | 365 kts | 266° |
| 2026-05-06 21:39 | 45.64998 | 9.78487 | 17967 ft | 364 kts | 267° |
| 2026-05-06 21:39 | 45.65017 | 9.74872 | 17287 ft | 364 kts | 268° |
| 2026-05-06 21:40 | 45.65099 | 9.71253 | 16702 ft | 364 kts | 269° |
| 2026-05-06 21:40 | 45.65190 | 9.67648 | 16161 ft | 361 kts | 269° |
| 2026-05-06 21:40 | 45.65274 | 9.64077 | 15645 ft | 358 kts | 269° |
| 2026-05-06 21:40 | 45.65331 | 9.60533 | 15141 ft | 356 kts | 268° |
| 2026-05-06 21:41 | 45.65340 | 9.57056 | 14656 ft | 353 kts | 267° |
| 2026-05-06 21:41 | 45.65337 | 9.53607 | 14650 ft | 340 kts | 267° |
| 2026-05-06 21:41 | 45.65334 | 9.50285 | 14491 ft | 329 kts | 267° |
| 2026-05-06 21:41 | 45.65332 | 9.47066 | 14347 ft | 319 kts | 267° |
| 2026-05-06 21:42 | 45.65333 | 9.44082 | 14222 ft | 310 kts | 267° |
| 2026-05-06 21:42 | 45.65334 | 9.41311 | 14106 ft | 301 kts | 268° |
| 2026-05-06 21:42 | 45.65335 | 9.38362 | 13969 ft | 293 kts | 268° |
| 2026-05-06 21:42 | 45.65336 | 9.35612 | 13706 ft | 285 kts | 267° |
| 2026-05-06 21:43 | 45.65341 | 9.32794 | 13385 ft | 284 kts | 268° |
| 2026-05-06 21:43 | 45.65356 | 9.30024 | 13082 ft | 282 kts | 268° |
| 2026-05-06 21:43 | 45.65369 | 9.27706 | 12832 ft | 280 kts | 268° |
| 2026-05-06 21:43 | 45.65384 | 9.24926 | 12527 ft | 279 kts | 268° |
| 2026-05-06 21:44 | 45.65399 | 9.22169 | 12234 ft | 277 kts | 268° |
| 2026-05-06 21:44 | 45.65412 | 9.19480 | 11946 ft | 275 kts | 268° |
| 2026-05-06 21:44 | 45.65424 | 9.16808 | 11660 ft | 274 kts | 268° |
| 2026-05-06 21:45 | 45.65430 | 9.15307 | 11500 ft | 273 kts | 268° |
| 2026-05-06 21:45 | 45.65441 | 9.12605 | 11210 ft | 272 kts | 268° |
| 2026-05-06 21:45 | 45.65451 | 9.09910 | 10927 ft | 270 kts | 268° |
| 2026-05-06 21:45 | 45.65460 | 9.07264 | 10661 ft | 269 kts | 268° |
| 2026-05-06 21:46 | 45.65469 | 9.04593 | 10369 ft | 269 kts | 268° |
| 2026-05-06 21:46 | 45.65476 | 9.01930 | 10146 ft | 265 kts | 269° |
| 2026-05-06 21:46 | 45.65478 | 8.99333 | 10021 ft | 258 kts | 267° |
| 2026-05-06 21:46 | 45.65082 | 8.96894 | 9825 ft | 253 kts | 243° |
| 2026-05-06 21:47 | 45.64230 | 8.94710 | 9553 ft | 251 kts | 242° |
| 2026-05-06 21:47 | 45.63432 | 8.92486 | 9280 ft | 250 kts | 243° |
| 2026-05-06 21:47 | 45.62642 | 8.90320 | 9173 ft | 243 kts | 237° |
| 2026-05-06 21:47 | 45.61403 | 8.88721 | 9016 ft | 245 kts | 204° |
| 2026-05-06 21:48 | 45.59706 | 8.88289 | 8803 ft | 254 kts | 181° |
| 2026-05-06 21:48 | 45.57928 | 8.88608 | 8550 ft | 261 kts | 171° |
| 2026-05-06 21:48 | 45.56153 | 8.89135 | 8270 ft | 260 kts | 170° |
| 2026-05-06 21:48 | 45.54405 | 8.89652 | 7999 ft | 259 kts | 170° |
| 2026-05-06 21:49 | 45.52645 | 8.90152 | 7728 ft | 258 kts | 170° |
| 2026-05-06 21:49 | 45.50887 | 8.90639 | 7462 ft | 257 kts | 171° |
| 2026-05-06 21:49 | 45.49135 | 8.91121 | 7198 ft | 255 kts | 171° |
| 2026-05-06 21:49 | 45.47396 | 8.91598 | 6944 ft | 254 kts | 171° |
| 2026-05-06 21:50 | 45.45659 | 8.92071 | 6684 ft | 253 kts | 171° |
| 2026-05-06 21:50 | 45.43936 | 8.92540 | 6426 ft | 252 kts | 170° |
| 2026-05-06 21:50 | 45.42215 | 8.93008 | 6160 ft | 251 kts | 171° |
| 2026-05-06 21:50 | 45.40521 | 8.93468 | 6036 ft | 244 kts | 171° |
| 2026-05-06 21:51 | 45.38913 | 8.93905 | 5973 ft | 234 kts | 171° |
| 2026-05-06 21:51 | 45.37338 | 8.94298 | 5863 ft | 225 kts | 179° |
| 2026-05-06 21:51 | 45.35879 | 8.93837 | 5788 ft | 210 kts | 210° |
| 2026-05-06 21:51 | 45.34625 | 8.92868 | 5744 ft | 203 kts | 204° |
| 2026-05-06 21:52 | 45.33295 | 8.92114 | 5754 ft | 214 kts | 202° |
| 2026-05-06 21:52 | 45.31867 | 8.91246 | 5754 ft | 230 kts | 204° |
| 2026-05-06 21:52 | 45.30406 | 8.90347 | 5729 ft | 225 kts | 204° |
| 2026-05-06 21:52 | 45.29009 | 8.89504 | 5710 ft | 214 kts | 204° |
| 2026-05-06 21:53 | 45.27689 | 8.88521 | 5712 ft | 219 kts | 221° |
| 2026-05-06 21:53 | 45.26926 | 8.86661 | 5726 ft | 224 kts | 259° |
| 2026-05-06 21:53 | 45.27058 | 8.84533 | 5709 ft | 220 kts | 291° |
| 2026-05-06 21:53 | 45.27976 | 8.82844 | 5712 ft | 216 kts | 323° |
| 2026-05-06 21:54 | 45.29339 | 8.82029 | 5736 ft | 215 kts | 347° |
| 2026-05-06 21:54 | 45.30818 | 8.81666 | 5736 ft | 215 kts | 347° |
| 2026-05-06 21:54 | 45.32294 | 8.81262 | 5643 ft | 218 kts | 347° |
| 2026-05-06 21:54 | 45.33806 | 8.80851 | 5436 ft | 223 kts | 347° |
| 2026-05-06 21:55 | 45.35319 | 8.80441 | 5199 ft | 219 kts | 347° |
| 2026-05-06 21:55 | 45.36795 | 8.80040 | 4968 ft | 213 kts | 347° |
| 2026-05-06 21:55 | 45.38240 | 8.79715 | 4753 ft | 207 kts | 351° |
| 2026-05-06 21:55 | 45.39660 | 8.79446 | 4557 ft | 205 kts | 351° |
| 2026-05-06 21:56 | 45.41036 | 8.79183 | 4353 ft | 198 kts | 351° |
| 2026-05-06 21:56 | 45.42359 | 8.78928 | 4150 ft | 186 kts | 351° |
| 2026-05-06 21:56 | 45.43583 | 8.78680 | 4009 ft | 173 kts | 349° |
| 2026-05-06 21:56 | 45.44766 | 8.78393 | 3808 ft | 170 kts | 349° |
| 2026-05-06 21:57 | 45.45915 | 8.78088 | 3614 ft | 165 kts | 348° |
| 2026-05-06 21:57 | 45.47040 | 8.77780 | 3446 ft | 166 kts | 348° |
| 2026-05-06 21:57 | 45.48177 | 8.77465 | 3279 ft | 166 kts | 348° |
| 2026-05-06 21:57 | 45.49308 | 8.77152 | 3207 ft | 168 kts | 348° |
| 2026-05-06 21:58 | 45.50455 | 8.76833 | 2992 ft | 168 kts | 349° |
| 2026-05-06 21:58 | 45.51594 | 8.76517 | 2765 ft | 165 kts | 349° |
| 2026-05-06 21:58 | 45.52709 | 8.76208 | 2543 ft | 161 kts | 350° |
| 2026-05-06 21:58 | 45.53799 | 8.75906 | 2329 ft | 159 kts | 351° |
| 2026-05-06 21:59 | 45.54871 | 8.75609 | 2120 ft | 159 kts | 350° |
| 2026-05-06 21:59 | 45.55953 | 8.75309 | 1900 ft | 158 kts | 352° |
| 2026-05-06 21:59 | 45.57024 | 8.75012 | 1693 ft | 155 kts | 350° |
| 2026-05-06 21:59 | 45.58085 | 8.74719 | 1461 ft | 154 kts | 350° |
| 2026-05-06 22:00 | 45.59127 | 8.74430 | 1245 ft | 151 kts | 350° |
| 2026-05-06 22:00 | 45.60143 | 8.74153 | 1065 ft | 146 kts | 348° |
| 2026-05-06 22:00 | 45.61133 | 8.73876 | 858 ft | 144 kts | 349° |
| 2026-05-06 22:00 | 45.62106 | 8.73604 | 719 ft | 139 kts | 349° |
| 2026-05-06 22:01 | 45.62952 | 8.73367 | 730 ft | 104 kts | 349° |
| 2026-05-06 22:01 | 45.63486 | 8.73222 | 743 ft | 33 kts | 348° |
| 2026-05-06 22:01 | 45.63655 | 8.73135 | 747 ft | 25 kts | 334° |
| 2026-05-06 22:01 | 45.63783 | 8.72981 | 749 ft | 23 kts | 313° |
| 2026-05-06 22:02 | 45.63875 | 8.72796 | 749 ft | 23 kts | 306° |
| 2026-05-06 22:02 | 45.63994 | 8.72666 | 756 ft | 22 kts | 339° |
| 2026-05-06 22:02 | 45.64032 | 8.72662 | 757 ft | 0 kts | 9° |